createdAt,value
2023-05-20T00:00:25.163Z,96711.75
2023-05-20T00:02:51.883Z,96722.69
2023-05-20T00:05:18.619Z,96727.22
2023-05-20T00:07:45.465Z,96728.53
2023-05-20T00:10:12.149Z,96718.41
2023-05-20T00:12:39.053Z,96715.59
2023-05-20T00:15:06.286Z,96716.59
2023-05-20T00:17:32.974Z,96721.41
2023-05-20T00:19:59.693Z,96716.09
2023-05-20T00:22:26.341Z,96715.44
2023-05-20T00:24:53.061Z,96717.69
2023-05-20T00:27:19.731Z,96722.69
2023-05-20T00:29:46.373Z,96726.59
2023-05-20T00:32:13.109Z,96723.66
2023-05-20T00:34:39.744Z,96720.81
2023-05-20T00:37:06.419Z,96716.19
2023-05-20T00:39:33.136Z,96723.25
2023-05-20T00:41:59.828Z,96718.66
2023-05-20T00:44:26.920Z,96721.38
2023-05-20T00:46:53.742Z,96721.66
2023-05-20T00:49:20.448Z,96705.22
2023-05-20T00:51:47.107Z,96701.88
2023-05-20T00:54:13.789Z,96701.56
2023-05-20T00:56:40.484Z,96694.31
2023-05-20T00:59:07.172Z,96704.63
2023-05-20T01:01:33.840Z,96695.78
2023-05-20T01:04:00.486Z,96695.56
2023-05-20T01:06:27.131Z,96699.75
2023-05-20T01:08:53.940Z,96700.56
2023-05-20T01:11:26.147Z,96693.25
2023-05-20T01:13:58.161Z,96689.28
2023-05-20T01:16:25.167Z,96691.56
2023-05-20T01:18:53.250Z,96685.03
2023-05-20T01:21:19.936Z,96691.78
2023-05-20T01:23:46.577Z,96691.69
2023-05-20T01:26:13.333Z,96686.97
2023-05-20T01:28:40.114Z,96695.16
2023-05-20T01:31:15.711Z,96698.66
2023-05-20T01:33:42.484Z,96708.69
2023-05-20T01:36:09.189Z,96702.09
2023-05-20T01:38:36.104Z,96699.97
2023-05-20T01:41:02.978Z,96703.13
2023-05-20T01:43:29.647Z,96694.00
2023-05-20T01:45:56.382Z,96703.25
2023-05-20T01:48:23.027Z,96699.47
2023-05-20T01:50:49.722Z,96701.50
2023-05-20T01:53:16.363Z,96706.34
2023-05-20T01:55:43.058Z,96700.59
2023-05-20T01:58:09.775Z,96699.75
2023-05-20T02:00:36.483Z,96696.22
2023-05-20T02:03:03.235Z,96697.34
2023-05-20T02:05:30.064Z,96699.53
2023-05-20T02:07:56.803Z,96702.59
2023-05-20T02:10:23.547Z,96689.09
2023-05-20T02:12:50.234Z,96695.31
2023-05-20T02:15:16.866Z,96694.75
2023-05-20T02:17:43.552Z,96680.75
2023-05-20T02:20:10.574Z,96685.25
2023-05-20T02:22:37.274Z,96674.38
2023-05-20T02:25:04.097Z,96677.84
2023-05-20T02:27:30.805Z,96665.63
2023-05-20T02:29:57.509Z,96656.25
2023-05-20T02:32:24.159Z,96670.22
2023-05-20T02:34:50.820Z,96667.34
2023-05-20T02:37:17.673Z,96662.69
2023-05-20T02:39:44.365Z,96662.31
2023-05-20T02:42:11.024Z,96669.97
2023-05-20T02:44:37.671Z,96660.28
2023-05-20T02:47:04.373Z,96672.09
2023-05-20T02:49:31.013Z,96670.34
2023-05-20T02:51:57.652Z,96675.53
2023-05-20T02:54:24.276Z,96674.88
2023-05-20T02:56:50.928Z,96672.75
2023-05-20T02:59:17.627Z,96677.97
2023-05-20T03:01:44.376Z,96672.41
2023-05-20T03:04:11.080Z,96675.94
2023-05-20T03:06:37.834Z,96676.50
2023-05-20T03:09:04.539Z,96669.59
2023-05-20T03:11:31.230Z,96665.41
2023-05-20T03:13:57.886Z,96658.69
2023-05-20T03:16:24.557Z,96653.78
2023-05-20T03:18:51.346Z,96650.81
2023-05-20T03:21:18.104Z,96655.53
2023-05-20T03:23:44.788Z,96655.81
2023-05-20T03:26:11.606Z,96659.25
2023-05-20T03:28:38.251Z,96660.31
2023-05-20T03:31:04.962Z,96658.97
2023-05-20T03:33:34.412Z,96654.72
2023-05-20T03:36:01.062Z,96658.72
2023-05-20T03:38:27.703Z,96654.22
2023-05-20T03:40:54.407Z,96650.13
2023-05-20T03:43:21.052Z,96655.31
2023-05-20T03:45:47.735Z,96656.66
2023-05-20T03:48:14.416Z,96670.91
2023-05-20T03:50:41.125Z,96658.56
2023-05-20T03:53:07.816Z,96665.59
2023-05-20T03:55:34.626Z,96657.34
2023-05-20T03:58:01.497Z,96649.97
2023-05-20T04:00:28.196Z,96653.59
2023-05-20T04:02:55.054Z,96652.59
2023-05-20T04:05:21.790Z,96645.66
2023-05-20T04:07:48.481Z,96647.34
2023-05-20T04:10:15.254Z,96650.81
2023-05-20T04:12:41.948Z,96652.44
2023-05-20T04:15:09.169Z,96649.75
2023-05-20T04:17:35.898Z,96640.47
2023-05-20T04:20:02.602Z,96648.53
2023-05-20T04:22:29.303Z,96648.75
2023-05-20T04:24:55.944Z,96652.19
2023-05-20T04:27:22.642Z,96657.03
2023-05-20T04:29:49.346Z,96657.03
2023-05-20T04:32:18.598Z,96659.25
2023-05-20T04:34:45.800Z,96670.19
2023-05-20T04:37:12.809Z,96656.78
2023-05-20T04:39:39.472Z,96653.75
2023-05-20T04:42:06.182Z,96656.53
2023-05-20T04:44:32.863Z,96661.44
2023-05-20T04:46:59.517Z,96672.56
2023-05-20T04:49:26.245Z,96661.50
2023-05-20T04:51:52.974Z,96663.91
2023-05-20T04:54:19.736Z,96664.03
2023-05-20T04:56:46.374Z,96666.03
2023-05-20T04:59:13.193Z,96665.78
2023-05-20T05:01:39.884Z,96665.88
2023-05-20T05:04:06.601Z,96664.56
2023-05-20T05:06:33.287Z,96658.72
2023-05-20T05:08:59.928Z,96655.88
2023-05-20T05:11:26.564Z,96657.28
2023-05-20T05:13:53.261Z,96655.16
2023-05-20T05:16:20.146Z,96649.31
2023-05-20T05:18:46.819Z,96645.75
2023-05-20T05:21:13.578Z,96649.38
2023-05-20T05:23:40.241Z,96640.59
2023-05-20T05:26:06.909Z,96637.00
2023-05-20T05:28:33.588Z,96639.31
2023-05-20T05:31:00.262Z,96635.22
2023-05-20T05:33:27.018Z,96642.28
2023-05-20T05:35:53.810Z,96636.34
2023-05-20T05:38:20.567Z,96642.00
2023-05-20T05:40:47.221Z,96646.91
2023-05-20T05:43:13.852Z,96643.09
2023-05-20T05:45:40.580Z,96639.81
2023-05-20T05:48:07.303Z,96628.81
2023-05-20T05:50:34.123Z,96629.69
2023-05-20T05:53:00.816Z,96623.88
2023-05-20T05:55:27.500Z,96619.59
2023-05-20T05:57:54.211Z,96615.94
2023-05-20T06:00:20.906Z,96623.59
2023-05-20T06:02:47.957Z,96618.75
2023-05-20T06:05:14.764Z,96627.22
2023-05-20T06:07:41.483Z,96630.03
2023-05-20T06:10:08.538Z,96631.66
2023-05-20T06:12:35.201Z,96628.91
2023-05-20T06:15:02.150Z,96637.28
2023-05-20T06:17:28.862Z,96630.69
2023-05-20T06:19:55.617Z,96614.97
2023-05-20T06:22:22.320Z,96616.28
2023-05-20T06:24:48.954Z,96614.50
2023-05-20T06:27:15.608Z,96618.25
2023-05-20T06:29:43.783Z,96612.31
2023-05-20T06:32:10.657Z,96620.75
2023-05-20T06:34:37.899Z,96620.53
2023-05-20T06:37:04.689Z,96617.38
2023-05-20T06:39:31.342Z,96619.03
2023-05-20T06:41:58.014Z,96618.25
2023-05-20T06:44:24.762Z,96620.44
2023-05-20T06:46:51.501Z,96607.00
2023-05-20T06:49:18.415Z,96613.56
2023-05-20T06:51:46.137Z,96605.22
2023-05-20T06:54:12.898Z,96607.09
2023-05-20T06:56:39.574Z,96604.69
2023-05-20T06:59:06.199Z,96602.09
2023-05-20T07:01:32.867Z,96593.75
2023-05-20T07:03:59.619Z,96589.16
2023-05-20T07:06:26.272Z,96584.91
2023-05-20T07:08:52.969Z,96597.41
2023-05-20T07:11:19.693Z,96604.66
2023-05-20T07:13:46.363Z,96592.75
2023-05-20T07:16:13.116Z,96590.06
2023-05-20T07:18:39.885Z,96588.19
2023-05-20T07:21:06.608Z,96583.84
2023-05-20T07:23:33.332Z,96577.09
2023-05-20T07:26:00.063Z,96587.41
2023-05-20T07:28:26.784Z,96574.88
2023-05-20T07:30:55.417Z,96579.78
2023-05-20T07:33:22.973Z,96583.59
2023-05-20T07:35:49.677Z,96579.81
2023-05-20T07:38:16.329Z,96579.22
2023-05-20T07:40:43.032Z,96581.69
2023-05-20T07:43:09.701Z,96581.13
2023-05-20T07:45:36.782Z,96576.16
2023-05-20T07:48:04.519Z,96575.69
2023-05-20T07:50:31.240Z,96571.09
2023-05-20T07:52:57.886Z,96569.22
2023-05-20T07:55:24.566Z,96571.94
2023-05-20T07:57:51.322Z,96573.03
2023-05-20T08:00:18.131Z,96575.19
2023-05-20T08:02:44.842Z,96567.84
2023-05-20T08:05:11.718Z,96567.31
2023-05-20T08:07:38.388Z,96565.13
2023-05-20T08:10:05.378Z,96561.06
2023-05-20T08:12:32.067Z,96567.31
2023-05-20T08:14:58.753Z,96565.97
2023-05-20T08:17:25.462Z,96564.88
2023-05-20T08:19:52.191Z,96551.56
2023-05-20T08:22:18.869Z,96551.25
2023-05-20T08:24:45.611Z,96554.47
2023-05-20T08:27:12.325Z,96557.78
2023-05-20T08:29:38.976Z,96555.28
2023-05-20T08:32:05.898Z,96547.94
2023-05-20T08:34:32.541Z,96543.28
2023-05-20T08:36:59.234Z,96540.88
2023-05-20T08:39:25.926Z,96532.72
2023-05-20T08:41:52.591Z,96547.94
2023-05-20T08:44:19.331Z,96539.47
2023-05-20T08:46:47.409Z,96544.72
2023-05-20T08:49:14.084Z,96541.50
2023-05-20T08:51:40.761Z,96547.22
2023-05-20T08:54:07.386Z,96554.56
2023-05-20T08:56:34.084Z,96556.19
2023-05-20T08:59:00.744Z,96549.41
2023-05-20T09:01:27.480Z,96555.63
2023-05-20T09:03:54.175Z,96550.75
2023-05-20T09:06:20.888Z,96547.47
2023-05-20T09:08:50.330Z,96557.25
2023-05-20T09:11:17.053Z,96552.91
2023-05-20T09:13:43.750Z,96537.16
2023-05-20T09:16:10.799Z,96539.88
2023-05-20T09:18:40.707Z,96545.06
2023-05-20T09:21:10.397Z,96544.25
2023-05-20T09:23:37.683Z,96535.00
2023-05-20T09:26:04.396Z,96530.66
2023-05-20T09:28:31.053Z,96530.13
2023-05-20T09:31:00.980Z,96534.69
2023-05-20T09:33:30.871Z,96531.13
2023-05-20T09:36:23.555Z,96535.38
2023-05-20T09:38:52.635Z,96529.84
2023-05-20T09:41:19.318Z,96523.28
2023-05-20T09:43:45.994Z,96524.88
2023-05-20T09:46:12.764Z,96527.53
2023-05-20T09:48:39.418Z,96510.69
2023-05-20T09:51:06.354Z,96514.56
2023-05-20T09:53:32.991Z,96520.22
2023-05-20T09:55:59.766Z,96521.69
2023-05-20T09:58:26.632Z,96528.88
2023-05-20T10:00:53.344Z,96531.44
2023-05-20T10:03:21.826Z,96538.84
2023-05-20T10:06:20.825Z,96538.94
2023-05-20T10:09:13.803Z,96535.75
2023-05-20T10:12:02.186Z,96539.59
2023-05-20T10:14:48.990Z,96533.56
2023-05-20T10:17:25.910Z,96534.94
2023-05-20T10:19:58.100Z,96531.94
2023-05-20T10:22:28.736Z,96532.06
2023-05-20T10:25:05.013Z,96533.44
2023-05-20T10:27:31.694Z,96528.19
2023-05-20T10:29:58.426Z,96518.47
2023-05-20T10:32:25.653Z,96523.13
2023-05-20T10:34:52.442Z,96520.78
2023-05-20T10:37:27.050Z,96529.59
2023-05-20T10:40:06.662Z,96524.97
2023-05-20T10:42:33.304Z,96522.78
2023-05-20T10:45:00.009Z,96522.22
2023-05-20T10:47:26.850Z,96527.59
2023-05-20T10:49:53.646Z,96512.41
2023-05-20T10:52:20.362Z,96517.50
2023-05-20T10:54:50.135Z,96513.00
2023-05-20T10:57:18.551Z,96525.81
2023-05-20T10:59:45.275Z,96529.91
2023-05-20T11:02:11.935Z,96525.84
2023-05-20T11:04:38.620Z,96522.72
2023-05-20T11:07:05.503Z,96518.84
2023-05-20T11:09:32.215Z,96516.78
2023-05-20T11:11:58.922Z,96519.03
2023-05-20T11:14:25.578Z,96513.06
2023-05-20T11:16:52.890Z,96512.19
2023-05-20T11:19:19.704Z,96510.22
2023-05-20T11:21:46.758Z,96513.50
2023-05-20T11:24:13.698Z,96515.94
2023-05-20T11:26:40.558Z,96514.91
2023-05-20T11:29:07.451Z,96505.38
2023-05-20T11:31:34.188Z,96497.06
2023-05-20T11:34:00.966Z,96494.53
2023-05-20T11:36:28.464Z,96497.69
2023-05-20T11:38:56.881Z,96492.91
2023-05-20T11:41:24.759Z,96496.59
2023-05-20T11:43:58.357Z,96504.34
2023-05-20T11:46:25.320Z,96500.53
2023-05-20T11:48:53.923Z,96491.56
2023-05-20T11:51:27.213Z,96487.72
2023-05-20T11:53:54.293Z,96490.91
2023-05-20T11:56:20.957Z,96478.78
2023-05-20T11:58:47.720Z,96478.00
2023-05-20T12:03:47.729Z,96479.69
2023-05-20T12:06:14.581Z,96479.03
2023-05-20T12:08:41.422Z,96481.59
2023-05-20T12:11:08.116Z,96472.41
2023-05-20T12:13:35.561Z,96471.06
2023-05-20T12:16:02.769Z,96476.13
2023-05-20T12:18:29.478Z,96469.03
2023-05-20T12:20:56.112Z,96463.72
2023-05-20T12:23:22.893Z,96469.44
2023-05-20T12:25:49.592Z,96471.91
2023-05-20T12:28:16.595Z,96470.00
2023-05-20T12:30:43.275Z,96478.38
2023-05-20T12:33:10.061Z,96487.31
2023-05-20T12:35:40.615Z,96480.34
2023-05-20T12:38:07.346Z,96489.91
2023-05-20T12:40:34.627Z,96480.00
2023-05-20T12:43:04.703Z,96474.59
2023-05-20T12:45:31.401Z,96479.53
2023-05-20T12:47:59.473Z,96473.28
2023-05-20T12:50:26.617Z,96477.72
2023-05-20T12:52:53.388Z,96477.56
2023-05-20T12:55:20.069Z,96486.72
2023-05-20T12:57:47.346Z,96477.72
2023-05-20T13:00:14.514Z,96478.25
2023-05-20T13:02:41.729Z,96482.34
2023-05-20T13:05:08.896Z,96483.69
2023-05-20T13:07:35.968Z,96492.66
2023-05-20T13:10:02.681Z,96486.72
2023-05-20T13:12:29.756Z,96498.75
2023-05-20T13:14:56.432Z,96497.03
2023-05-20T13:17:23.254Z,96491.97
2023-05-20T13:19:49.980Z,96484.72
2023-05-20T13:22:16.698Z,96480.03
2023-05-20T13:24:43.422Z,96487.28
2023-05-20T13:27:10.661Z,96496.03
2023-05-20T13:29:37.402Z,96489.53
2023-05-20T13:32:04.366Z,96497.78
2023-05-20T13:34:31.007Z,96496.94
2023-05-20T13:36:57.663Z,96494.94
2023-05-20T13:39:24.966Z,96490.75
2023-05-20T13:41:51.652Z,96485.56
2023-05-20T13:44:18.327Z,96492.88
2023-05-20T13:46:45.156Z,96484.97
2023-05-20T13:49:11.913Z,96484.88
2023-05-20T13:51:38.656Z,96494.66
2023-05-20T13:54:05.298Z,96495.75
2023-05-20T13:56:31.934Z,96494.09
2023-05-20T13:58:58.615Z,96488.78
2023-05-20T14:01:25.304Z,96496.63
2023-05-20T14:03:52.192Z,96492.72
2023-05-20T14:06:19.054Z,96497.63
2023-05-20T14:08:45.962Z,96496.47
2023-05-20T14:11:12.756Z,96482.94
2023-05-20T14:13:39.447Z,96486.44
2023-05-20T14:16:06.467Z,96474.09
2023-05-20T14:18:33.308Z,96477.44
2023-05-20T14:21:00.106Z,96469.81
2023-05-20T14:23:26.822Z,96468.72
2023-05-20T14:25:53.522Z,96471.50
2023-05-20T14:28:20.216Z,96467.59
2023-05-20T14:30:46.912Z,96468.88
2023-05-20T14:33:13.638Z,96466.72
2023-05-20T14:35:40.438Z,96469.91
2023-05-20T14:38:07.122Z,96460.16
2023-05-20T14:40:33.988Z,96461.19
2023-05-20T14:43:00.910Z,96460.31
2023-05-20T14:45:27.638Z,96464.38
2023-05-20T14:47:54.407Z,96468.66
2023-05-20T14:50:21.137Z,96470.38
2023-05-20T14:52:49.126Z,96465.09
2023-05-20T14:55:15.912Z,96472.63
2023-05-20T14:57:43.185Z,96463.47
2023-05-20T15:00:10.541Z,96476.53
2023-05-20T15:02:37.392Z,96469.69
2023-05-20T15:05:04.359Z,96479.72
2023-05-20T15:07:31.112Z,96475.53
2023-05-20T15:09:57.754Z,96478.09
2023-05-20T15:12:24.403Z,96480.03
2023-05-20T15:14:51.029Z,96481.59
2023-05-20T15:17:17.675Z,96478.50
2023-05-20T15:19:45.605Z,96473.75
2023-05-20T15:22:12.298Z,96469.94
2023-05-20T15:24:39.012Z,96465.28
2023-05-20T15:27:05.816Z,96474.19
2023-05-20T15:29:32.474Z,96474.84
2023-05-20T15:31:59.117Z,96469.94
2023-05-20T15:34:25.847Z,96476.22
2023-05-20T15:36:52.582Z,96478.94
2023-05-20T15:39:19.235Z,96474.84
2023-05-20T15:41:45.932Z,96477.00
2023-05-20T15:44:12.863Z,96481.34
2023-05-20T15:46:39.694Z,96483.22
2023-05-20T15:49:06.905Z,96469.13
2023-05-20T15:51:33.669Z,96472.34
2023-05-20T15:54:00.437Z,96473.16
2023-05-20T15:56:28.606Z,96471.72
2023-05-20T15:58:55.382Z,96464.59
2023-05-20T16:01:22.111Z,96466.25
2023-05-20T16:03:48.966Z,96454.81
2023-05-20T16:06:15.797Z,96458.31
2023-05-20T16:08:42.500Z,96461.84
2023-05-20T16:11:09.341Z,96456.88
2023-05-20T16:13:36.038Z,96469.88
2023-05-20T16:16:02.799Z,96460.97
2023-05-20T16:18:29.570Z,96466.69
2023-05-20T16:20:59.266Z,96467.56
2023-05-20T16:23:27.122Z,96467.25
2023-05-20T16:25:53.789Z,96464.53
2023-05-20T16:28:20.414Z,96470.25
2023-05-20T16:30:47.100Z,96478.44
2023-05-20T16:33:13.793Z,96481.88
2023-05-20T16:35:40.527Z,96485.94
2023-05-20T16:38:07.186Z,96490.50
2023-05-20T16:40:34.066Z,96486.16
2023-05-20T16:43:01.276Z,96475.91
2023-05-20T16:45:28.181Z,96474.88
2023-05-20T16:47:54.927Z,96472.69
2023-05-20T16:50:21.805Z,96469.94
2023-05-20T16:52:48.508Z,96477.81
2023-05-20T16:55:15.180Z,96472.13
2023-05-20T16:57:41.883Z,96470.19
2023-05-20T17:00:08.972Z,96476.41
2023-05-20T17:02:35.904Z,96471.81
2023-05-20T17:05:02.769Z,96470.72
2023-05-20T17:07:29.427Z,96468.47
2023-05-20T17:09:56.156Z,96463.38
2023-05-20T17:12:22.922Z,96460.56
2023-05-20T17:14:49.611Z,96465.69
2023-05-20T17:17:16.436Z,96465.03
2023-05-20T17:19:43.275Z,96460.94
2023-05-20T17:22:10.238Z,96468.00
2023-05-20T17:24:36.964Z,96468.00
2023-05-20T17:27:04.209Z,96470.22
2023-05-20T17:29:30.850Z,96460.34
2023-05-20T17:31:57.521Z,96464.91
2023-05-20T17:34:24.223Z,96458.72
2023-05-20T17:36:50.859Z,96464.13
2023-05-20T17:39:17.498Z,96474.28
2023-05-20T17:41:44.468Z,96484.38
2023-05-20T17:44:11.173Z,96474.06
2023-05-20T17:46:38.179Z,96475.97
2023-05-20T17:49:04.959Z,96478.16
2023-05-20T17:51:31.652Z,96484.41
2023-05-20T17:53:58.366Z,96484.41
2023-05-20T17:56:25.026Z,96480.88
2023-05-20T17:58:52.038Z,96479.50
2023-05-20T18:01:19.628Z,96473.50
2023-05-20T18:03:46.554Z,96462.13
2023-05-20T18:06:13.431Z,96477.34
2023-05-20T18:08:40.112Z,96471.13
2023-05-20T18:11:06.797Z,96475.47
2023-05-20T18:13:33.440Z,96479.28
2023-05-20T18:16:00.256Z,96479.00
2023-05-20T18:18:27.018Z,96478.19
2023-05-20T18:20:53.708Z,96490.69
2023-05-20T18:23:20.385Z,96493.16
2023-05-20T18:25:47.083Z,96495.88
2023-05-20T18:28:13.736Z,96498.63
2023-05-20T18:30:40.370Z,96491.53
2023-05-20T18:33:07.047Z,96495.59
2023-05-20T18:35:33.718Z,96499.97
2023-05-20T18:38:00.358Z,96489.63
2023-05-20T18:40:26.967Z,96500.50
2023-05-20T18:42:53.671Z,96495.38
2023-05-20T18:45:21.313Z,96494.81
2023-05-20T18:47:48.065Z,96500.78
2023-05-20T18:50:14.818Z,96490.47
2023-05-20T18:52:41.597Z,96490.47
2023-05-20T18:55:08.566Z,96485.59
2023-05-20T18:57:35.249Z,96484.53
2023-05-20T19:00:01.927Z,96486.69
2023-05-20T19:02:28.617Z,96483.41
2023-05-20T19:04:55.421Z,96477.22
2023-05-20T19:07:22.105Z,96476.38
2023-05-20T19:09:48.917Z,96475.56
2023-05-20T19:12:15.704Z,96480.16
2023-05-20T19:14:42.439Z,96477.41
2023-05-20T19:17:09.157Z,96485.00
2023-05-20T19:19:35.928Z,96490.97
2023-05-20T19:22:02.664Z,96481.47
2023-05-20T19:24:29.338Z,96485.25
2023-05-20T19:26:56.011Z,96489.34
2023-05-20T19:29:22.677Z,96490.97
2023-05-20T19:31:49.320Z,96493.16
2023-05-20T19:34:16.035Z,96495.56
2023-05-20T19:36:42.744Z,96494.75
2023-05-20T19:39:09.701Z,96497.47
2023-05-20T19:41:36.402Z,96490.66
2023-05-20T19:44:03.091Z,96491.75
2023-05-20T19:46:29.796Z,96493.41
2023-05-20T19:48:57.711Z,96495.84
2023-05-20T19:51:24.811Z,96498.53
2023-05-20T19:53:51.528Z,96497.72
2023-05-20T19:56:18.182Z,96503.13
2023-05-20T19:58:47.977Z,96512.88
2023-05-20T20:01:14.802Z,96513.72
2023-05-20T20:03:41.503Z,96514.28
2023-05-20T20:06:09.446Z,96520.50
2023-05-20T20:08:36.370Z,96511.50
2023-05-20T20:11:03.223Z,96516.13
2023-05-20T20:13:29.873Z,96513.16
2023-05-20T20:15:56.654Z,96513.97
2023-05-20T20:18:23.415Z,96518.84
2023-05-20T20:20:50.126Z,96513.16
2023-05-20T20:23:16.812Z,96512.06
2023-05-20T20:25:43.480Z,96508.31
2023-05-20T20:28:10.369Z,96519.72
2023-05-20T20:30:37.077Z,96515.34
2023-05-20T20:33:04.061Z,96511.03
2023-05-20T20:35:30.768Z,96506.16
2023-05-20T20:37:57.587Z,96499.91
2023-05-20T20:40:24.733Z,96500.97
2023-05-20T20:42:52.021Z,96503.69
2023-05-20T20:45:18.685Z,96500.09
2023-05-20T20:47:45.461Z,96495.19
2023-05-20T20:50:12.271Z,96497.38
2023-05-20T20:52:39.328Z,96485.19
2023-05-20T20:55:06.725Z,96495.97
2023-05-20T20:57:33.402Z,96488.44
2023-05-20T21:00:00.226Z,96489.22
2023-05-20T21:02:26.959Z,96484.63
2023-05-20T21:04:53.707Z,96482.19
2023-05-20T21:07:20.524Z,96487.03
2023-05-20T21:09:47.204Z,96489.44
2023-05-20T21:12:14.061Z,96488.63
2023-05-20T21:14:40.768Z,96484.56
2023-05-20T21:17:07.614Z,96481.84
2023-05-20T21:19:34.438Z,96472.59
2023-05-20T21:22:01.100Z,96477.78
2023-05-20T21:24:27.733Z,96479.91
2023-05-20T21:26:54.455Z,96475.88
2023-05-20T21:29:21.161Z,96477.44
2023-05-20T21:31:47.870Z,96483.38
2023-05-20T21:34:15.021Z,96477.94
2023-05-20T21:36:41.730Z,96476.38
2023-05-20T21:39:08.426Z,96473.44
2023-05-20T21:41:35.124Z,96473.72
2023-05-20T21:44:01.927Z,96475.88
2023-05-20T21:46:28.705Z,96468.81
2023-05-20T21:48:55.430Z,96472.88
2023-05-20T21:51:22.065Z,96461.97
2023-05-20T21:53:48.753Z,96462.78
2023-05-20T21:56:15.466Z,96459.81
2023-05-20T21:58:42.189Z,96462.47
2023-05-20T22:01:09.047Z,96460.28
2023-05-20T22:03:36.146Z,96456.47
2023-05-20T22:06:03.012Z,96453.19
2023-05-20T22:08:29.893Z,96452.09
2023-05-20T22:10:57.419Z,96452.59
2023-05-20T22:13:24.084Z,96453.97
2023-05-20T22:15:50.765Z,96451.03
2023-05-20T22:18:17.459Z,96451.00
2023-05-20T22:20:44.200Z,96449.63
2023-05-20T22:23:10.913Z,96449.88
2023-05-20T22:25:37.697Z,96451.47
2023-05-20T22:28:04.680Z,96447.41
2023-05-20T22:30:31.351Z,96448.25
2023-05-20T22:32:58.037Z,96443.13
2023-05-20T22:35:24.808Z,96442.56
2023-05-20T22:37:51.529Z,96446.63
2023-05-20T22:40:18.185Z,96436.81
2023-05-20T22:42:44.834Z,96431.41
2023-05-20T22:45:11.477Z,96435.13
2023-05-20T22:47:38.232Z,96440.25
2023-05-20T22:50:05.462Z,96432.94
2023-05-20T22:52:32.129Z,96431.88
2023-05-20T22:54:58.844Z,96432.19
2023-05-20T22:57:25.565Z,96431.34
2023-05-20T22:59:52.505Z,96431.34
2023-05-20T23:02:19.251Z,96423.19
2023-05-20T23:04:45.930Z,96426.41
2023-05-20T23:07:12.687Z,96429.13
2023-05-20T23:09:39.333Z,96418.34
2023-05-20T23:12:06.568Z,96426.47
2023-05-20T23:14:33.268Z,96424.81
2023-05-20T23:17:00.026Z,96426.19
2023-05-20T23:19:26.900Z,96425.41
2023-05-20T23:21:53.564Z,96425.88
2023-05-20T23:24:20.279Z,96423.72
2023-05-20T23:26:47.018Z,96427.22
2023-05-20T23:29:13.707Z,96423.72
2023-05-20T23:31:40.469Z,96423.16
2023-05-20T23:34:07.221Z,96424.47
2023-05-20T23:36:33.897Z,96419.84
2023-05-20T23:39:01.498Z,96419.31
2023-05-20T23:41:29.370Z,96419.59
2023-05-20T23:43:56.072Z,96425.00
2023-05-20T23:46:22.826Z,96418.25
2023-05-20T23:48:49.880Z,96411.25
2023-05-20T23:51:16.551Z,96414.78
2023-05-20T23:53:43.713Z,96415.84
2023-05-20T23:56:10.446Z,96404.78
2023-05-20T23:58:37.096Z,96405.63
